Time;durP1;ratioP1;P1;durP2;ratioP2;P2;SDS_P1;SDS_P2;PMS_P1;PMS_P2;Temp;Humidity;BMP_temperature;BMP_pressure;BME280_temperature;BME280_humidity;BME280_pressure;Samples;Min_cycle;Max_cycle;Signal;HPM_P1;HPM_P2
2022/01/04 00:01:08;;;;;;;;;2.00;1.00;;;;;12.94;78.49;99686.41;4952213;28;45402;-53
2022/01/04 00:03:33;;;;;;;;;2.50;2.00;;;;;12.94;78.27;99685.56;4952604;28;45889;-52
2022/01/04 00:05:59;;;;;;;;;2.00;1.00;;;;;12.95;78.77;99676.22;4951158;28;45491;-52
2022/01/04 00:08:26;;;;;;;;;1.25;1.25;;;;;12.94;78.17;99675.41;4952409;28;46458;-53
2022/01/04 00:10:55;;;;;;;;;1.00;1.00;;;;;12.83;78.86;99657.91;4952135;28;45398;-55
2022/01/04 00:13:24;;;;;;;;;7.40;7.40;;;;;12.86;78.76;99654.63;4934256;28;45418;-51
2022/01/04 00:15:51;;;;;;;;;8.00;5.00;;;;;12.68;79.10;99624.63;4952514;28;45479;-53
2022/01/04 00:18:18;;;;;;;;;5.40;2.60;;;;;12.90;78.69;99643.13;4950531;28;46798;-56
2022/01/04 00:20:43;;;;;;;;;1.00;1.00;;;;;12.88;78.74;99641.44;4930620;28;45370;-53
2022/01/04 00:23:09;;;;;;;;;2.50;1.00;;;;;12.86;78.74;99635.34;4954314;28;45429;-54
2022/01/04 00:25:34;;;;;;;;;2.00;1.00;;;;;12.86;78.78;99627.09;4950829;28;45392;-59
2022/01/04 00:28:01;;;;;;;;;0.75;0.75;;;;;12.81;79.10;99606.94;4950448;28;47914;-56
2022/01/04 00:30:28;;;;;;;;;1.00;1.00;;;;;12.82;79.01;99603.91;4950142;28;45418;-51
2022/01/04 00:32:55;;;;;;;;;0.00;0.00;;;;;12.81;78.97;99602.25;4952988;28;45444;-53
2022/01/04 00:35:20;;;;;;;;;0.00;0.00;;;;;12.82;78.97;99592.06;4954007;28;45833;-52
2022/01/04 00:37:46;;;;;;;;;0.00;0.00;;;;;12.85;79.22;99586.03;4955637;28;45733;-52
2022/01/04 00:40:12;;;;;;;;;1.00;0.00;;;;;12.86;79.14;99585.78;4953782;28;45429;-56
2022/01/04 00:42:37;;;;;;;;;1.00;0.00;;;;;12.62;78.69;99543.91;4955147;28;45425;-55
2022/01/04 00:45:03;;;;;;;;;0.00;0.00;;;;;12.86;78.85;99571.22;4954779;28;45592;-54
2022/01/04 00:47:41;;;;;;;;;0.00;0.00;;;;;12.85;78.72;99561.25;4953846;28;47042;-52
2022/01/04 00:50:07;;;;;;;;;2.40;1.80;;;;;12.58;78.55;99517.97;4954069;28;45919;-54
2022/01/04 00:52:32;;;;;;;;;0.00;0.00;;;;;12.83;78.66;99555.19;4954158;28;45542;-56
2022/01/04 00:54:58;;;;;;;;;1.25;0.00;;;;;12.85;79.12;99547.47;4937957;28;45531;-54
2022/01/04 00:57:24;;;;;;;;;0.00;0.00;;;;;12.85;78.72;99548.34;4947492;28;46496;-52
2022/01/04 00:59:50;;;;;;;;;0.40;0.40;;;;;12.84;79.01;99543.06;4956879;28;45648;-54
2022/01/04 01:02:15;;;;;;;;;0.00;0.00;;;;;12.84;78.60;99540.31;4956478;28;45491;-53
2022/01/04 01:04:41;;;;;;;;;0.00;0.00;;;;;12.83;79.05;99528.50;4974670;28;45359;-54
2022/01/04 01:07:06;;;;;;;;;0.50;0.00;;;;;12.86;78.88;99521.66;4958917;28;45758;-52
2022/01/04 01:09:37;;;;;;;;;0.00;0.00;;;;;12.78;78.80;99495.38;4977093;28;45435;-54
2022/01/04 01:12:02;;;;;;;;;0.00;0.00;;;;;12.82;78.75;99503.97;4961609;28;45517;-56
2022/01/04 01:14:28;;;;;;;;;0.75;0.75;;;;;12.67;79.14;99466.06;4978157;28;45459;-59
2022/01/04 01:16:54;;;;;;;;;0.25;0.25;;;;;12.87;78.87;99499.34;4978121;28;46094;-56
2022/01/04 01:19:20;;;;;;;;;0.00;0.00;;;;;12.87;78.92;99493.81;4978064;28;45347;-51
2022/01/04 01:21:45;;;;;;;;;0.00;0.00;;;;;12.88;78.56;99489.97;4973898;28;45454;-59
2022/01/04 01:24:11;;;;;;;;;1.00;1.00;;;;;12.87;78.59;99493.00;4965806;28;45472;-53
2022/01/04 01:26:37;;;;;;;;;0.00;0.00;;;;;12.84;78.72;99482.50;4975669;28;45790;-51
2022/01/04 01:29:02;;;;;;;;;0.00;0.00;;;;;12.82;78.81;99473.66;4976647;28;45419;-55
2022/01/04 01:31:30;;;;;;;;;0.00;0.00;;;;;12.77;78.95;99468.94;4977692;28;45304;-56
2022/01/04 01:33:55;;;;;;;;;0.00;0.00;;;;;12.63;78.74;99449.22;4978453;28;45298;-55
2022/01/04 01:36:21;;;;;;;;;0.00;0.00;;;;;12.80;78.90;99468.41;4960835;28;45375;-56
2022/01/04 01:38:46;;;;;;;;;0.00;0.00;;;;;12.81;78.84;99463.75;4977984;28;45326;-50
2022/01/04 01:41:12;;;;;;;;;0.00;0.00;;;;;12.82;78.92;99466.22;4977938;28;45296;-55
2022/01/04 01:43:37;;;;;;;;;0.00;0.00;;;;;12.79;79.50;99461.25;4978052;28;45693;-54
2022/01/04 01:46:03;;;;;;;;;0.00;0.00;;;;;12.77;79.38;99444.16;4959728;28;45388;-54
2022/01/04 01:48:29;;;;;;;;;1.00;0.00;;;;;12.81;79.13;99445.28;4960351;28;45792;-57
2022/01/04 01:50:54;;;;;;;;;0.00;0.00;;;;;12.61;79.22;99399.94;4977251;28;45390;-56
2022/01/04 01:53:20;;;;;;;;;0.00;0.00;;;;;12.78;79.12;99415.53;4976733;28;45631;-52
2022/01/04 01:55:46;;;;;;;;;1.40;1.00;;;;;12.83;79.19;99423.00;4975893;28;46394;-55
2022/01/04 01:58:11;;;;;;;;;1.00;1.00;;;;;12.83;79.18;99429.38;4975919;28;45340;-55
2022/01/04 02:00:37;;;;;;;;;2.00;2.00;;;;;12.83;79.45;99415.59;4960710;28;45343;-56
2022/01/04 02:03:03;;;;;;;;;1.00;1.00;;;;;12.83;78.94;99415.59;4960577;28;45505;-56
2022/01/04 02:05:29;;;;;;;;;1.00;1.00;;;;;12.83;79.14;99421.09;4977748;28;46331;-57
2022/01/04 02:07:55;;;;;;;;;2.50;2.50;;;;;12.76;79.26;99412.22;4977470;28;45752;-53
2022/01/04 02:10:20;;;;;;;;;0.50;0.50;;;;;12.84;78.86;99414.50;4928203;28;45429;-56
2022/01/04 02:12:47;;;;;;;;;1.25;1.25;;;;;12.80;78.82;99407.03;4977772;28;45280;-58
2022/01/04 02:15:18;;;;;;;;;0.60;0.60;;;;;12.79;79.12;99391.56;4977290;28;45367;-55
2022/01/04 02:17:44;;;;;;;;;1.60;1.60;;;;;12.65;78.86;99375.47;4977836;28;45285;-55
2022/01/04 02:20:10;;;;;;;;;4.25;4.25;;;;;12.81;78.82;99397.69;4976990;28;45430;-53
2022/01/04 02:22:35;;;;;;;;;4.00;4.00;;;;;12.80;78.75;99391.31;4977871;28;45217;-52
2022/01/04 02:25:01;;;;;;;;;7.75;6.00;;;;;12.80;78.74;99388.56;4977215;28;46295;-53
2022/01/04 02:27:26;;;;;;;;;5.00;5.00;;;;;12.80;78.89;99385.81;4977407;28;45313;-54
2022/01/04 02:29:52;;;;;;;;;8.50;8.50;;;;;12.59;78.72;99360.00;4977625;28;45234;-54
2022/01/04 02:32:18;;;;;;;;;8.00;8.00;;;;;12.70;78.59;99375.53;4975873;28;45547;-55
2022/01/04 02:34:50;;;;;;;;;8.25;8.25;;;;;12.69;78.30;99364.78;4977220;28;45676;-54
2022/01/04 02:37:23;;;;;;;;;8.00;7.60;;;;;12.41;77.62;99318.00;4977175;28;45337;-55
2022/01/04 02:39:48;;;;;;;;;8.80;8.00;;;;;12.41;77.85;99308.91;4959764;28;45752;-52
2022/01/04 02:42:14;;;;;;;;;9.00;8.00;;;;;12.41;77.57;99317.16;4977589;28;45317;-56
2022/01/04 02:44:39;;;;;;;;;7.00;5.00;;;;;12.56;77.95;99346.75;4976920;28;45705;-52
2022/01/04 02:47:05;;;;;;;;;9.00;6.25;;;;;12.57;77.21;99331.91;4977152;28;45337;-50
2022/01/04 02:49:30;;;;;;;;;7.50;6.25;;;;;12.51;77.48;99332.94;4959446;28;45289;-55
2022/01/04 02:51:56;;;;;;;;;9.50;6.00;;;;;12.45;76.82;99332.06;4977426;28;45282;-53
2022/01/04 02:54:21;;;;;;;;;9.00;6.25;;;;;12.10;76.95;99281.09;4976953;28;46336;-52
2022/01/04 02:56:47;;;;;;;;;4.00;4.00;;;;;11.90;77.49;99263.25;4976937;28;45305;-55
2022/01/04 02:59:13;;;;;;;;;5.00;3.25;;;;;12.04;77.66;99282.94;4976671;28;45350;-56
2022/01/04 03:01:38;;;;;;;;;1.00;1.00;;;;;12.09;77.15;99276.66;4959474;28;45423;-52
2022/01/04 03:04:04;;;;;;;;;4.00;2.50;;;;;12.10;77.01;99297.59;4971168;28;47287;-54
2022/01/04 03:06:30;;;;;;;;;2.00;2.00;;;;;11.88;77.52;99266.25;4973607;28;45403;-56
2022/01/04 03:08:55;;;;;;;;;1.00;1.00;;;;;12.11;77.43;99291.00;4959128;28;45389;-54
2022/01/04 03:11:21;;;;;;;;;3.00;3.00;;;;;12.10;77.46;99294.84;4976398;28;45469;-55
2022/01/04 03:13:46;;;;;;;;;2.00;2.00;;;;;12.05;76.41;99281.84;4976310;28;46808;-59
2022/01/04 03:16:12;;;;;;;;;2.00;2.00;;;;;12.00;77.04;99279.84;4976489;28;45400;-54
2022/01/04 03:18:50;;;;;;;;;2.00;2.00;;;;;11.96;76.33;99286.13;4958830;28;45507;-54
2022/01/04 03:21:16;;;;;;;;;2.00;2.00;;;;;11.95;76.92;99270.72;4976691;28;45343;-53
2022/01/04 03:23:41;;;;;;;;;2.00;2.00;;;;;11.95;77.11;99268.78;4976167;28;45715;-56
2022/01/04 03:26:07;;;;;;;;;2.00;2.00;;;;;11.91;77.15;99262.97;4976199;28;45237;-55
2022/01/04 03:28:32;;;;;;;;;2.75;2.75;;;;;11.80;77.15;99240.03;4976463;28;45667;-53
2022/01/04 03:30:58;;;;;;;;;2.75;2.50;;;;;11.93;76.70;99257.22;4976419;28;45345;-55
2022/01/04 03:33:23;;;;;;;;;1.00;1.00;;;;;11.96;77.04;99255.88;4975991;28;45424;-55
2022/01/04 03:35:49;;;;;;;;;1.00;1.00;;;;;11.92;76.37;99248.13;4975710;28;45265;-51
2022/01/04 03:38:15;;;;;;;;;1.25;1.00;;;;;11.95;76.30;99240.47;4976348;28;45691;-50
2022/01/04 03:40:40;;;;;;;;;1.00;1.00;;;;;11.88;76.18;99232.41;4976358;28;45373;-52
2022/01/04 03:43:05;;;;;;;;;2.50;1.75;;;;;11.91;76.41;99237.41;4974633;28;46035;-54
2022/01/04 03:45:31;;;;;;;;;3.00;2.50;;;;;11.84;75.56;99239.53;4975827;28;45443;-56
2022/01/04 03:47:56;;;;;;;;;1.00;1.00;;;;;11.78;76.08;99247.69;4976427;28;45411;-54
2022/01/04 03:50:22;;;;;;;;;3.75;2.00;;;;;11.79;76.09;99246.63;4958679;28;45313;-51
2022/01/04 03:52:47;;;;;;;;;2.25;1.00;;;;;11.55;76.28;99213.06;4975261;28;45415;-53
2022/01/04 03:55:13;;;;;;;;;0.00;0.00;;;;;11.69;76.04;99235.47;4976131;28;45636;-50
2022/01/04 03:57:38;;;;;;;;;1.25;1.25;;;;;11.50;75.22;99234.97;4974420;28;45542;-56
2022/01/04 04:00:05;;;;;;;;;0.75;0.75;;;;;11.50;76.27;99243.22;4974812;28;45368;-58
2022/01/04 04:02:31;;;;;;;;;0.00;0.00;;;;;11.34;76.76;99214.72;4975908;28;46530;-52
2022/01/04 04:04:56;;;;;;;;;2.00;2.00;;;;;11.48;76.67;99246.22;4975704;28;45368;-56
2022/01/04 04:07:22;;;;;;;;;0.00;0.00;;;;;11.33;75.81;99233.13;4975307;28;45355;-58
2022/01/04 04:09:47;;;;;;;;;0.00;0.00;;;;;11.37;76.79;99249.94;4975388;28;45583;-52
2022/01/04 04:12:14;;;;;;;;;0.50;0.50;;;;;11.17;75.98;99217.50;4975624;28;45699;-52
2022/01/04 04:14:40;;;;;;;;;0.00;0.00;;;;;11.38;77.13;99241.41;4975835;28;45496;-54
2022/01/04 04:17:06;;;;;;;;;0.00;0.00;;;;;11.17;75.71;99215.63;4975446;28;45444;-58
2022/01/04 04:19:31;;;;;;;;;0.00;0.00;;;;;11.23;76.08;99252.22;4976015;28;45452;-52
2022/01/04 04:21:56;;;;;;;;;0.00;0.00;;;;;11.07;76.28;99246.50;4975124;28;46386;-55
2022/01/04 04:24:22;;;;;;;;;0.00;0.00;;;;;10.95;76.73;99221.88;4975662;28;45443;-58
2022/01/04 04:26:47;;;;;;;;;0.00;0.00;;;;;11.12;77.66;99238.31;4975424;28;45422;-54
2022/01/04 04:29:13;;;;;;;;;1.00;0.00;;;;;11.02;76.61;99251.91;4958110;28;45283;-52
2022/01/04 04:31:38;;;;;;;;;0.00;0.00;;;;;10.95;75.89;99254.81;4975163;28;46079;-54
2022/01/04 04:34:04;;;;;;;;;0.00;0.00;;;;;10.92;76.36;99258.06;4975204;28;45368;-52
2022/01/04 04:36:31;;;;;;;;;1.00;0.00;;;;;10.88;76.25;99251.41;4958151;28;45308;-52
2022/01/04 04:38:56;;;;;;;;;0.00;0.00;;;;;10.76;76.51;99232.31;4975614;28;45396;-55
2022/01/04 04:41:22;;;;;;;;;0.00;0.00;;;;;10.96;76.86;99244.69;4975370;28;45530;-56
2022/01/04 04:43:53;;;;;;;;;0.00;0.00;;;;;11.02;76.20;99251.91;4975233;28;45467;-53
2022/01/04 04:46:18;;;;;;;;;0.00;0.00;;;;;10.80;76.44;99243.59;4975332;28;45255;-54
2022/01/04 04:48:44;;;;;;;;;0.00;0.00;;;;;10.83;76.26;99260.41;4958144;28;45349;-55
2022/01/04 04:51:09;;;;;;;;;0.00;0.00;;;;;10.87;75.89;99262.66;4974829;28;45726;-55
2022/01/04 04:53:35;;;;;;;;;0.00;0.00;;;;;10.92;76.66;99259.97;4975312;28;45339;-56
2022/01/04 04:56:00;;;;;;;;;0.00;0.00;;;;;10.84;77.05;99264.00;4975086;28;45372;-54
2022/01/04 04:58:26;;;;;;;;;0.25;0.00;;;;;10.87;75.96;99277.19;4941647;28;45972;-60
2022/01/04 05:00:51;;;;;;;;;0.00;0.00;;;;;10.83;76.32;99267.78;4975141;28;45644;-57
2022/01/04 05:03:17;;;;;;;;;0.00;0.00;;;;;10.89;77.47;99269.53;4990247;28;45343;-51
2022/01/04 05:05:42;;;;;;;;;0.00;0.00;;;;;10.87;77.49;99263.47;4975675;28;45299;-52
2022/01/04 05:08:08;;;;;;;;;0.00;0.00;;;;;10.61;76.94;99230.13;4975282;28;45621;-53
2022/01/04 05:10:33;;;;;;;;;0.00;0.00;;;;;10.90;76.25;99271.22;4975499;28;46204;-51
2022/01/04 05:12:59;;;;;;;;;0.00;0.00;;;;;10.89;76.06;99279.72;4974846;28;45285;-53
2022/01/04 05:15:24;;;;;;;;;0.00;0.00;;;;;10.82;76.27;99282.59;4975028;28;45410;-56
2022/01/04 05:17:50;;;;;;;;;0.00;0.00;;;;;10.60;77.35;99244.94;4990338;28;45436;-50
2022/01/04 05:20:15;;;;;;;;;0.00;0.00;;;;;10.76;76.78;99287.19;4976436;28;45639;-52
2022/01/04 05:22:41;;;;;;;;;1.00;0.00;;;;;10.71;77.00;99296.16;4978176;28;45398;-54
2022/01/04 05:25:08;;;;;;;;;0.00;0.00;;;;;10.49;76.95;99252.16;4978066;28;45382;-55
2022/01/04 05:27:33;;;;;;;;;0.00;0.00;;;;;10.71;76.00;99292.59;4978191;28;45356;-55
2022/01/04 05:29:59;;;;;;;;;0.00;0.00;;;;;10.51;76.30;99271.13;4978264;28;45594;-55
2022/01/04 05:32:24;;;;;;;;;1.00;0.00;;;;;10.66;76.12;99307.06;4958926;28;45403;-52
2022/01/04 05:34:49;;;;;;;;;0.00;0.00;;;;;10.58;74.78;99296.50;4958633;28;45324;-55
2022/01/04 05:37:15;;;;;;;;;0.00;0.00;;;;;10.52;76.09;99295.56;4958775;28;45803;-54
2022/01/04 05:39:40;;;;;;;;;0.00;0.00;;;;;10.54;75.64;99295.31;4957307;28;45929;-55
2022/01/04 05:42:08;;;;;;;;;0.00;0.00;;;;;10.50;77.19;99288.66;4956811;28;45421;-53
2022/01/04 05:44:35;;;;;;;;;1.00;0.00;;;;;10.46;75.60;99285.56;4959076;28;45603;-49
2022/01/04 05:47:00;;;;;;;;;0.00;0.00;;;;;10.47;76.53;99303.72;4959489;28;45300;-56
2022/01/04 05:49:26;;;;;;;;;0.00;0.00;;;;;10.37;76.05;99282.38;4957933;28;46570;-55
2022/01/04 05:51:51;;;;;;;;;0.00;0.00;;;;;10.34;75.62;99290.28;4958272;28;45386;-52
2022/01/04 05:54:17;;;;;;;;;0.00;0.00;;;;;10.01;76.05;99235.09;4958236;28;45848;-50
2022/01/04 05:56:42;;;;;;;;;0.00;0.00;;;;;10.37;76.38;99304.31;4950382;28;45764;-55
2022/01/04 05:59:08;;;;;;;;;0.00;0.00;;;;;10.41;76.47;99305.47;4957580;28;47803;-52
2022/01/04 06:01:33;;;;;;;;;0.00;0.00;;;;;10.43;74.83;99300.63;4977720;28;45428;-54
2022/01/04 06:03:59;;;;;;;;;0.00;0.00;;;;;10.37;74.60;99295.25;4963253;28;45324;-58
2022/01/04 06:06:24;;;;;;;;;0.00;0.00;;;;;10.29;74.58;99285.50;4939194;28;45283;-51
2022/01/04 06:08:51;;;;;;;;;0.00;0.00;;;;;10.23;74.95;99270.88;4938781;28;46123;-53
2022/01/04 06:11:54;;;;;;;;;0.00;0.00;;;;;9.63;75.57;99175.22;4938487;28;45357;-57
2022/01/04 06:17:00;;;;;;;;;1.00;0.00;;;;;10.13;73.72;99259.69;4938858;28;45306;-55
2022/01/04 06:19:26;;;;;;;;;1.00;1.00;;;;;10.28;75.43;99284.69;4917159;28;46523;-51
2022/01/04 06:21:52;;;;;;;;;0.00;0.00;;;;;10.26;75.39;99280.53;4938175;28;45955;-54
2022/01/04 06:24:17;;;;;;;;;0.00;0.00;;;;;10.12;74.12;99263.53;4938853;28;45350;-50
2022/01/04 06:26:43;;;;;;;;;0.00;0.00;;;;;10.33;75.15;99303.16;4937270;28;45441;-56
2022/01/04 06:29:10;;;;;;;;;1.25;0.00;;;;;10.37;74.67;99311.72;4938617;28;46430;-56
2022/01/04 06:31:36;;;;;;;;;3.00;0.00;;;;;10.40;74.53;99313.94;4945756;28;45411;-55
2022/01/04 06:34:01;;;;;;;;;0.25;0.25;;;;;10.39;74.69;99326.00;4957848;28;45367;-55
2022/01/04 06:36:28;;;;;;;;;1.00;1.00;;;;;10.44;75.25;99320.66;4957611;28;45591;-52
2022/01/04 06:38:54;;;;;;;;;0.00;0.00;;;;;10.50;74.70;99318.81;4957466;28;45376;-55
2022/01/04 06:41:20;;;;;;;;;0.00;0.00;;;;;10.40;74.94;99300.22;4957627;28;45410;-57
2022/01/04 06:43:45;;;;;;;;;0.00;0.00;;;;;10.28;72.93;99283.84;4957332;28;45735;-56
2022/01/04 06:46:13;;;;;;;;;0.00;0.00;;;;;10.51;74.76;99346.00;4957908;28;45426;-54
2022/01/04 06:48:39;;;;;;;;;0.00;0.00;;;;;10.45;74.33;99330.53;4957377;28;45645;-57
2022/01/04 06:51:04;;;;;;;;;0.25;0.00;;;;;10.44;74.00;99332.47;4957133;28;45405;-55
2022/01/04 06:53:30;;;;;;;;;0.00;0.00;;;;;10.41;73.57;99335.66;4957202;28;45377;-55
2022/01/04 06:55:55;;;;;;;;;0.00;0.00;;;;;10.42;74.12;99340.09;4957731;28;45221;-53
2022/01/04 06:58:21;;;;;;;;;0.75;0.00;;;;;10.43;74.59;99351.91;4953432;28;46136;-56
2022/01/04 07:00:47;;;;;;;;;0.00;0.00;;;;;10.48;74.08;99360.22;4995117;28;45487;-55
2022/01/04 07:03:12;;;;;;;;;0.00;0.00;;;;;10.49;74.14;99372.88;4994177;28;45382;-50
2022/01/04 07:05:38;;;;;;;;;0.00;0.00;;;;;10.50;73.74;99373.69;4996742;28;45477;-53
2022/01/04 07:08:03;;;;;;;;;2.00;0.75;;;;;10.53;73.65;99371.31;4994428;28;46328;-55
2022/01/04 07:10:29;;;;;;;;;1.00;1.00;;;;;10.28;73.43;99335.94;4996291;28;45366;-53
2022/01/04 07:12:54;;;;;;;;;1.00;1.00;;;;;10.50;74.28;99363.56;4994551;28;45406;-56
2022/01/04 07:15:20;;;;;;;;;1.00;1.00;;;;;10.55;73.70;99351.84;4996531;28;45507;-57
2022/01/04 07:17:46;;;;;;;;;1.00;1.00;;;;;10.59;74.65;99364.00;4995751;28;46101;-56
2022/01/04 07:20:11;;;;;;;;;0.50;0.50;;;;;10.58;74.23;99362.34;4996028;28;45954;-57
2022/01/04 07:22:37;;;;;;;;;2.50;2.50;;;;;10.54;74.65;99359.25;4996104;28;45435;-53
2022/01/04 07:25:04;;;;;;;;;2.25;2.25;;;;;10.52;73.74;99355.09;4977800;28;45740;-55
2022/01/04 07:27:29;;;;;;;;;5.60;4.00;;;;;10.52;73.73;99355.91;4996330;28;46397;-51
2022/01/04 07:29:55;;;;;;;;;3.00;3.00;;;;;10.51;75.35;99369.88;4996158;28;45440;-55
2022/01/04 07:32:20;;;;;;;;;2.00;0.75;;;;;10.53;74.35;99374.06;4982713;28;45501;-52
2022/01/04 07:34:46;;;;;;;;;6.50;4.00;;;;;10.55;75.10;99379.28;4976184;28;45516;-57
2022/01/04 07:37:11;;;;;;;;;5.00;3.75;;;;;10.55;74.40;99387.50;4975662;28;46024;-58
2022/01/04 07:39:37;;;;;;;;;4.50;4.50;;;;;10.54;74.61;99391.34;4976167;28;45699;-52
2022/01/04 07:42:02;;;;;;;;;3.00;3.00;;;;;10.55;74.64;99403.97;4975923;28;45366;-57
2022/01/04 07:44:28;;;;;;;;;6.00;4.00;;;;;10.52;73.93;99398.97;4976034;28;45407;-56
2022/01/04 07:46:54;;;;;;;;;2.50;2.25;;;;;10.52;74.30;99404.47;4976051;28;46082;-51
2022/01/04 07:49:19;;;;;;;;;4.00;3.00;;;;;10.53;74.59;99406.97;4975539;28;45316;-55
2022/01/04 07:51:45;;;;;;;;;2.00;2.00;;;;;10.54;73.96;99408.63;4975902;28;45308;-56
2022/01/04 07:54:10;;;;;;;;;22.50;19.50;;;;;10.50;73.48;99414.84;4958107;28;45539;-53
2022/01/04 07:56:36;;;;;;;;;4.00;4.00;;;;;10.46;74.04;99402.69;4958433;28;45462;-54
2022/01/04 07:59:03;;;;;;;;;3.25;3.25;;;;;10.54;74.58;99422.34;4963958;28;45489;-56
2022/01/04 08:01:28;;;;;;;;;3.00;3.00;;;;;10.54;73.57;99425.09;4947242;28;45393;-55
2022/01/04 08:03:54;;;;;;;;;6.75;2.50;;;;;10.60;74.08;99442.47;4958549;28;45417;-54
2022/01/04 08:06:20;;;;;;;;;4.00;4.00;;;;;10.58;73.07;99453.69;4975869;28;46034;-54
2022/01/04 08:08:45;;;;;;;;;3.25;2.75;;;;;10.62;73.62;99458.72;4975282;28;45344;-53
2022/01/04 08:11:11;;;;;;;;;3.00;1.75;;;;;10.43;73.64;99423.22;4975470;28;45277;-54
2022/01/04 08:13:36;;;;;;;;;2.00;2.00;;;;;10.66;73.61;99466.19;4958149;28;45329;-53
2022/01/04 08:16:02;;;;;;;;;1.75;1.75;;;;;10.66;73.45;99473.59;4941949;28;47937;-54
2022/01/04 08:18:28;;;;;;;;;2.00;2.00;;;;;10.61;73.24;99479.81;4975567;28;45782;-50
2022/01/04 08:20:57;;;;;;;;;1.00;1.00;;;;;10.66;73.32;99484.56;4976006;28;45216;-55
2022/01/04 08:23:26;;;;;;;;;0.40;0.40;;;;;10.68;72.95;99483.25;4975197;28;45606;-55
2022/01/04 08:25:52;;;;;;;;;1.00;1.00;;;;;10.59;72.30;99473.75;4958436;28;45912;-55
2022/01/04 08:28:17;;;;;;;;;1.25;0.00;;;;;10.66;72.65;99473.59;4966969;28;45382;-53
2022/01/04 08:30:43;;;;;;;;;1.00;1.00;;;;;10.68;72.41;99460.47;4981776;28;46390;-55
2022/01/04 08:33:10;;;;;;;;;0.00;0.00;;;;;10.56;72.82;99444.03;4974225;28;45669;-57
2022/01/04 08:35:35;;;;;;;;;1.20;1.00;;;;;10.67;72.84;99473.34;4970134;28;45957;-56
2022/01/04 08:38:01;;;;;;;;;3.00;1.00;;;;;10.71;72.34;99496.50;4952232;28;45573;-57
2022/01/04 08:40:26;;;;;;;;;0.75;0.75;;;;;10.71;72.72;99493.75;4971207;28;45532;-60
2022/01/04 08:42:52;;;;;;;;;0.00;0.00;;;;;10.68;72.70;99498.91;4954274;28;45487;-58
2022/01/04 08:45:17;;;;;;;;;0.50;0.50;;;;;10.62;71.88;99497.94;4969917;28;46009;-56
2022/01/04 08:47:44;;;;;;;;;0.75;0.75;;;;;10.62;73.30;99502.63;4969651;28;45534;-60
2022/01/04 08:50:10;;;;;;;;;1.60;0.40;;;;;10.43;72.96;99487.16;4969977;28;45775;-53
2022/01/04 08:52:36;;;;;;;;;1.20;0.00;;;;;10.57;73.05;99512.41;4971091;28;45693;-55
2022/01/04 08:55:02;;;;;;;;;0.00;0.00;;;;;10.34;73.38;99480.31;4973244;28;45713;-53
2022/01/04 08:57:29;;;;;;;;;0.20;0.20;;;;;10.54;73.38;99510.16;4974111;28;45387;-57
2022/01/04 08:59:55;;;;;;;;;0.00;0.00;;;;;10.44;73.06;99507.16;4932039;28;45685;-55
2022/01/04 09:02:21;;;;;;;;;0.75;0.75;;;;;10.53;72.95;99502.16;4974881;28;46111;-53
2022/01/04 09:04:47;;;;;;;;;2.60;1.00;;;;;10.56;72.73;99508.00;4973916;28;46292;-58
2022/01/04 09:07:13;;;;;;;;;1.00;1.00;;;;;10.57;73.02;99519.81;4975180;28;45436;-55
2022/01/04 09:09:39;;;;;;;;;1.00;1.00;;;;;10.60;72.58;99519.31;4973485;28;45666;-60
2022/01/04 09:12:05;;;;;;;;;1.50;0.50;;;;;10.52;73.38;99519.69;4974119;28;45732;-55
2022/01/04 09:14:43;;;;;;;;;0.00;0.00;;;;;10.52;72.33;99525.19;4953538;28;47224;-60
2022/01/04 09:19:53;;;;;;;;;0.80;0.80;;;;;10.60;73.13;99541.25;4959342;28;45793;-58
2022/01/04 09:22:19;;;;;;;;;0.25;0.25;;;;;10.61;72.44;99526.47;4956708;28;45857;-59
2022/01/04 09:24:44;;;;;;;;;0.00;0.00;;;;;10.58;72.65;99524.22;4956107;28;46064;-53
2022/01/04 09:27:10;;;;;;;;;1.00;1.00;;;;;10.49;72.35;99510.03;4974356;28;45572;-58
2022/01/04 09:29:36;;;;;;;;;1.00;1.00;;;;;10.55;72.13;99519.19;4972871;28;45697;-58
2022/01/04 09:32:02;;;;;;;;;2.00;2.00;;;;;10.39;73.13;99513.34;4956115;28;45485;-57
2022/01/04 09:34:28;;;;;;;;;2.60;2.00;;;;;10.49;73.40;99521.00;4971419;28;46073;-54
2022/01/04 09:36:54;;;;;;;;;0.75;0.75;;;;;10.50;72.72;99521.81;4956101;28;46074;-57
2022/01/04 09:39:23;;;;;;;;;2.75;1.00;;;;;10.40;73.39;99500.47;4974072;28;45394;-58
2022/01/04 09:41:49;;;;;;;;;2.00;1.20;;;;;10.57;72.71;99517.88;4972606;28;45865;-58
2022/01/04 09:44:15;;;;;;;;;2.00;2.00;;;;;10.53;73.62;99489.28;4972632;28;46672;-58
2022/01/04 09:46:41;;;;;;;;;2.50;2.50;;;;;10.61;74.03;99501.75;4974406;28;45695;-57
2022/01/04 09:49:08;;;;;;;;;0.75;0.75;;;;;10.31;73.07;99464.38;4993125;28;45845;-53
2022/01/04 09:51:34;;;;;;;;;2.00;2.00;;;;;10.65;73.14;99529.56;4975657;28;45546;-55
2022/01/04 09:53:59;;;;;;;;;2.25;2.00;;;;;10.68;73.33;99542.81;4991166;28;46671;-59
2022/01/04 09:56:25;;;;;;;;;5.25;2.00;;;;;10.43;73.41;99495.38;4991993;28;45755;-57
2022/01/04 09:58:51;;;;;;;;;2.00;2.00;;;;;10.62;72.68;99550.06;4946673;28;45931;-55
2022/01/04 10:01:28;;;;;;;;;2.40;2.20;;;;;10.58;73.28;99546.16;4992158;28;45879;-54
2022/01/04 10:03:53;;;;;;;;;4.40;3.00;;;;;10.63;73.92;99551.78;4993677;28;47055;-53
2022/01/04 10:06:19;;;;;;;;;7.25;3.50;;;;;10.66;73.63;99544.94;4991123;28;45876;-57
2022/01/04 10:09:00;;;;;;;;;3.00;3.00;;;;;10.63;73.43;99545.44;4993905;28;45489;-57
2022/01/04 10:11:39;;;;;;;;;2.20;2.20;;;;;10.70;73.63;99557.09;4993805;28;45986;-53
2022/01/04 10:14:24;;;;;;;;;2.00;2.00;;;;;10.76;73.28;99569.03;4990469;28;46682;-55
2022/01/04 10:16:54;;;;;;;;;1.00;1.00;;;;;10.78;72.80;99572.38;4972432;28;45951;-53
2022/01/04 10:19:29;;;;;;;;;2.60;1.60;;;;;10.53;72.65;99548.78;4956026;28;45430;-56
2022/01/04 10:22:20;;;;;;;;;3.00;2.00;;;;;10.77;73.40;99581.69;4974196;28;46199;-57
2022/01/04 10:25:02;;;;;;;;;1.60;1.00;;;;;10.73;73.11;99580.50;4951254;28;47310;-54
2022/01/04 10:27:30;;;;;;;;;1.20;1.20;;;;;10.73;72.80;99564.03;4971878;28;45474;-55
2022/01/04 10:30:13;;;;;;;;;0.60;0.60;;;;;10.65;72.57;99554.25;4972892;28;45447;-57
2022/01/04 10:32:52;;;;;;;;;1.80;1.20;;;;;10.75;72.79;99562.72;4971204;28;45490;-56
2022/01/04 10:35:28;;;;;;;;;2.00;2.00;;;;;10.67;72.60;99544.69;4955027;28;45759;-62
2022/01/04 10:37:54;;;;;;;;;2.00;0.60;;;;;10.76;72.37;99553.41;4959143;28;45844;-61
2022/01/04 10:40:20;;;;;;;;;0.60;0.60;;;;;10.76;71.12;99555.28;4971875;28;45591;-61
2022/01/04 10:42:46;;;;;;;;;1.50;1.00;;;;;10.52;73.11;99512.28;4973139;28;45367;-58
2022/01/04 10:45:23;;;;;;;;;2.75;2.75;;;;;10.80;73.58;99527.16;4973095;28;45772;-61
2022/01/04 10:47:48;;;;;;;;;4.00;2.80;;;;;10.73;72.51;99520.13;4972898;28;45444;-61
2022/01/04 10:50:31;;;;;;;;;0.50;0.50;;;;;10.74;72.56;99541.84;4973016;28;45408;-63
2022/01/04 10:52:58;;;;;;;;;2.00;2.00;;;;;10.66;71.98;99525.72;4973340;28;45438;-61
2022/01/04 10:55:23;;;;;;;;;0.80;0.80;;;;;10.78;73.32;99551.22;4955246;28;47537;-59
2022/01/04 10:57:49;;;;;;;;;1.00;1.00;;;;;10.71;72.85;99551.38;4973029;28;45419;-61
2022/01/04 11:00:22;;;;;;;;;3.00;2.00;;;;;10.70;71.76;99551.63;4936099;28;45998;-64
2022/01/04 11:02:48;;;;;;;;;2.00;2.00;;;;;10.21;73.29;99473.22;4973189;28;45475;-57
2022/01/04 11:05:18;;;;;;;;;2.00;1.00;;;;;10.57;73.19;99522.56;4972325;28;45443;-62
2022/01/04 11:08:04;;;;;;;;;1.00;1.00;;;;;10.70;72.40;99543.38;4971155;28;45878;-56
2022/01/04 11:10:35;;;;;;;;;1.60;1.00;;;;;10.15;73.35;99461.28;4938828;28;45423;-59
2022/01/04 11:13:00;;;;;;;;;1.00;1.00;;;;;10.62;72.46;99532.78;4955462;28;45938;-61
2022/01/04 11:15:26;;;;;;;;;2.75;1.75;;;;;10.64;72.79;99527.88;4972420;28;45496;-63
2022/01/04 11:17:52;;;;;;;;;2.00;2.00;;;;;10.62;73.82;99527.31;4970326;28;45429;-60
2022/01/04 11:20:17;;;;;;;;;2.00;2.00;;;;;10.69;73.74;99553.50;4970208;28;45782;-63
2022/01/04 11:22:45;;;;;;;;;1.00;1.00;;;;;10.68;73.62;99546.38;4972217;28;45692;-61
2022/01/04 11:25:10;;;;;;;;;2.40;2.40;;;;;10.68;73.52;99543.63;4954703;28;47962;-59
2022/01/04 11:27:36;;;;;;;;;2.50;1.25;;;;;10.67;73.58;99547.44;4970698;28;45541;-56
2022/01/04 11:30:10;;;;;;;;;1.00;1.00;;;;;10.66;73.80;99548.53;4954606;28;45460;-55
2022/01/04 11:32:36;;;;;;;;;2.40;1.00;;;;;10.77;73.34;99562.47;4955101;28;45361;-51
2022/01/04 11:35:12;;;;;;;;;3.00;1.00;;;;;10.79;72.31;99552.09;4938509;28;46999;-52
2022/01/04 11:37:41;;;;;;;;;3.40;2.40;;;;;10.77;73.02;99548.75;4970445;28;45833;-55